sensor_id;sensor_type;location;lat;lon;timestamp;P1;durP1;ratioP1;P2;durP2;ratioP2
26080;SDS011;13991;51.174;4.438;2023-04-25T17:36:24;11.83;;;1.50;;
26080;SDS011;13991;51.174;4.438;2023-04-25T17:38:50;16.10;;;1.23;;
26080;SDS011;13991;51.174;4.438;2023-04-25T17:41:16;6.63;;;1.30;;
26080;SDS011;13991;51.174;4.438;2023-04-25T17:43:42;14.27;;;1.50;;
26080;SDS011;13991;51.174;4.438;2023-04-25T17:46:08;17.90;;;1.73;;
26080;SDS011;13991;51.174;4.438;2023-04-25T17:48:34;10.47;;;1.57;;
26080;SDS011;13991;51.174;4.438;2023-04-25T17:51:00;8.27;;;1.67;;
26080;SDS011;13991;51.174;4.438;2023-04-25T17:53:26;11.77;;;2.33;;
26080;SDS011;13991;51.174;4.438;2023-04-25T17:55:52;14.33;;;2.13;;
26080;SDS011;13991;51.174;4.438;2023-04-25T17:58:17;7.27;;;1.87;;
26080;SDS011;13991;51.174;4.438;2023-04-25T18:00:43;7.57;;;1.20;;
26080;SDS011;13991;51.174;4.438;2023-04-25T18:03:09;14.63;;;1.10;;
26080;SDS011;13991;51.174;4.438;2023-04-25T18:05:35;6.93;;;1.63;;
26080;SDS011;13991;51.174;4.438;2023-04-25T18:08:01;9.53;;;1.37;;
26080;SDS011;13991;51.174;4.438;2023-04-25T18:10:26;8.30;;;1.10;;
26080;SDS011;13991;51.174;4.438;2023-04-25T18:12:52;3.80;;;1.23;;
26080;SDS011;13991;51.174;4.438;2023-04-25T18:15:18;12.90;;;2.30;;
26080;SDS011;13991;51.174;4.438;2023-04-25T18:17:45;7.70;;;1.60;;
26080;SDS011;13991;51.174;4.438;2023-04-25T18:20:12;15.23;;;2.50;;
26080;SDS011;13991;51.174;4.438;2023-04-25T18:22:42;13.43;;;1.43;;
26080;SDS011;13991;51.174;4.438;2023-04-25T18:25:09;11.80;;;2.07;;
26080;SDS011;13991;51.174;4.438;2023-04-25T18:27:35;11.30;;;2.20;;
26080;SDS011;13991;51.174;4.438;2023-04-25T18:30:05;7.27;;;2.33;;
26080;SDS011;13991;51.174;4.438;2023-04-25T18:32:32;9.50;;;1.30;;
26080;SDS011;13991;51.174;4.438;2023-04-25T18:34:58;3.50;;;1.00;;
26080;SDS011;13991;51.174;4.438;2023-04-25T18:37:24;18.40;;;2.57;;
26080;SDS011;13991;51.174;4.438;2023-04-25T18:39:50;12.83;;;1.57;;
26080;SDS011;13991;51.174;4.438;2023-04-25T18:42:16;11.67;;;1.67;;
26080;SDS011;13991;51.174;4.438;2023-04-25T18:44:43;15.53;;;1.40;;
26080;SDS011;13991;51.174;4.438;2023-04-25T18:47:10;8.70;;;1.30;;
26080;SDS011;13991;51.174;4.438;2023-04-25T18:49:37;6.33;;;1.30;;
26080;SDS011;13991;51.174;4.438;2023-04-25T18:52:03;13.80;;;1.37;;
26080;SDS011;13991;51.174;4.438;2023-04-25T18:54:32;6.57;;;1.20;;
26080;SDS011;13991;51.174;4.438;2023-04-25T18:56:58;9.40;;;1.33;;
26080;SDS011;13991;51.174;4.438;2023-04-25T18:59:25;6.00;;;1.30;;
26080;SDS011;13991;51.174;4.438;2023-04-25T19:01:51;8.47;;;1.10;;
26080;SDS011;13991;51.174;4.438;2023-04-25T19:04:17;21.77;;;1.57;;
26080;SDS011;13991;51.174;4.438;2023-04-25T19:06:43;8.03;;;1.53;;
26080;SDS011;13991;51.174;4.438;2023-04-25T19:09:10;7.60;;;1.20;;
26080;SDS011;13991;51.174;4.438;2023-04-25T19:11:37;9.40;;;1.27;;
26080;SDS011;13991;51.174;4.438;2023-04-25T19:14:03;4.40;;;1.23;;
26080;SDS011;13991;51.174;4.438;2023-04-25T19:16:29;15.80;;;1.53;;
26080;SDS011;13991;51.174;4.438;2023-04-25T19:19:01;11.80;;;1.50;;
26080;SDS011;13991;51.174;4.438;2023-04-25T19:21:27;8.70;;;1.50;;
26080;SDS011;13991;51.174;4.438;2023-04-25T19:23:52;10.50;;;2.23;;
26080;SDS011;13991;51.174;4.438;2023-04-25T19:26:18;22.10;;;1.40;;
26080;SDS011;13991;51.174;4.438;2023-04-25T19:28:44;15.30;;;1.83;;
26080;SDS011;13991;51.174;4.438;2023-04-25T19:31:10;15.50;;;2.27;;
26080;SDS011;13991;51.174;4.438;2023-04-25T19:33:36;11.13;;;1.77;;
26080;SDS011;13991;51.174;4.438;2023-04-25T19:36:02;14.17;;;2.00;;
26080;SDS011;13991;51.174;4.438;2023-04-25T19:38:28;9.07;;;1.57;;
26080;SDS011;13991;51.174;4.438;2023-04-25T19:40:54;12.20;;;1.50;;
26080;SDS011;13991;51.174;4.438;2023-04-25T19:43:20;7.90;;;2.07;;
26080;SDS011;13991;51.174;4.438;2023-04-25T19:45:45;10.60;;;1.73;;
26080;SDS011;13991;51.174;4.438;2023-04-25T19:48:11;8.00;;;1.87;;
26080;SDS011;13991;51.174;4.438;2023-04-25T19:50:38;6.67;;;1.40;;
26080;SDS011;13991;51.174;4.438;2023-04-25T19:53:04;19.60;;;1.97;;
26080;SDS011;13991;51.174;4.438;2023-04-25T19:55:30;5.90;;;1.43;;
26080;SDS011;13991;51.174;4.438;2023-04-25T19:57:55;13.07;;;1.67;;
26080;SDS011;13991;51.174;4.438;2023-04-25T20:00:21;14.33;;;2.00;;
26080;SDS011;13991;51.174;4.438;2023-04-25T20:02:47;8.27;;;1.87;;
26080;SDS011;13991;51.174;4.438;2023-04-25T20:05:14;10.23;;;1.73;;
26080;SDS011;13991;51.174;4.438;2023-04-25T20:07:41;10.00;;;1.50;;
26080;SDS011;13991;51.174;4.438;2023-04-25T20:10:07;13.27;;;1.57;;
26080;SDS011;13991;51.174;4.438;2023-04-25T20:12:36;9.53;;;1.63;;
26080;SDS011;13991;51.174;4.438;2023-04-25T20:15:04;9.13;;;1.67;;
26080;SDS011;13991;51.174;4.438;2023-04-25T20:17:31;7.17;;;1.40;;
26080;SDS011;13991;51.174;4.438;2023-04-25T20:19:57;9.63;;;1.43;;
26080;SDS011;13991;51.174;4.438;2023-04-25T20:22:23;6.63;;;1.30;;
26080;SDS011;13991;51.174;4.438;2023-04-25T20:24:49;8.70;;;1.30;;
26080;SDS011;13991;51.174;4.438;2023-04-25T20:27:16;10.03;;;1.23;;
26080;SDS011;13991;51.174;4.438;2023-04-25T20:29:42;12.07;;;1.93;;
26080;SDS011;13991;51.174;4.438;2023-04-25T20:32:07;13.20;;;1.83;;
26080;SDS011;13991;51.174;4.438;2023-04-25T20:34:33;9.13;;;1.60;;
26080;SDS011;13991;51.174;4.438;2023-04-25T20:37:00;10.23;;;1.40;;
26080;SDS011;13991;51.174;4.438;2023-04-25T20:39:26;19.30;;;2.57;;
26080;SDS011;13991;51.174;4.438;2023-04-25T20:41:53;9.53;;;1.53;;
26080;SDS011;13991;51.174;4.438;2023-04-25T20:44:19;12.40;;;1.57;;
26080;SDS011;13991;51.174;4.438;2023-04-25T20:46:47;10.27;;;2.07;;
26080;SDS011;13991;51.174;4.438;2023-04-25T20:49:13;10.77;;;1.37;;
26080;SDS011;13991;51.174;4.438;2023-04-25T20:51:39;9.90;;;1.80;;
26080;SDS011;13991;51.174;4.438;2023-04-25T20:54:04;7.20;;;1.63;;
26080;SDS011;13991;51.174;4.438;2023-04-25T20:56:31;15.30;;;1.87;;
26080;SDS011;13991;51.174;4.438;2023-04-25T20:58:57;15.80;;;1.83;;
26080;SDS011;13991;51.174;4.438;2023-04-25T21:01:23;17.47;;;2.70;;
26080;SDS011;13991;51.174;4.438;2023-04-25T21:03:49;13.23;;;2.17;;
26080;SDS011;13991;51.174;4.438;2023-04-25T21:06:15;17.33;;;1.60;;
26080;SDS011;13991;51.174;4.438;2023-04-25T21:08:41;15.37;;;1.83;;
26080;SDS011;13991;51.174;4.438;2023-04-25T21:11:07;7.70;;;1.30;;
26080;SDS011;13991;51.174;4.438;2023-04-25T21:13:34;15.77;;;2.07;;
26080;SDS011;13991;51.174;4.438;2023-04-25T21:15:59;15.03;;;1.60;;
26080;SDS011;13991;51.174;4.438;2023-04-25T21:18:25;9.30;;;1.33;;
26080;SDS011;13991;51.174;4.438;2023-04-25T21:20:51;9.80;;;1.30;;
26080;SDS011;13991;51.174;4.438;2023-04-25T21:23:17;11.87;;;1.87;;
26080;SDS011;13991;51.174;4.438;2023-04-25T21:25:43;15.40;;;1.93;;
26080;SDS011;13991;51.174;4.438;2023-04-25T21:28:10;13.87;;;2.23;;
26080;SDS011;13991;51.174;4.438;2023-04-25T21:30:36;19.90;;;2.60;;
26080;SDS011;13991;51.174;4.438;2023-04-25T21:33:04;20.70;;;1.73;;
26080;SDS011;13991;51.174;4.438;2023-04-25T21:35:29;11.03;;;2.07;;
26080;SDS011;13991;51.174;4.438;2023-04-25T21:37:55;6.60;;;2.00;;
26080;SDS011;13991;51.174;4.438;2023-04-25T21:40:21;13.83;;;1.73;;
26080;SDS011;13991;51.174;4.438;2023-04-25T21:42:47;18.07;;;2.13;;
26080;SDS011;13991;51.174;4.438;2023-04-25T21:45:17;9.63;;;1.90;;
26080;SDS011;13991;51.174;4.438;2023-04-25T21:47:45;24.70;;;2.00;;
26080;SDS011;13991;51.174;4.438;2023-04-25T21:50:11;16.67;;;2.07;;
26080;SDS011;13991;51.174;4.438;2023-04-25T21:52:37;13.07;;;2.07;;
26080;SDS011;13991;51.174;4.438;2023-04-25T21:55:03;18.97;;;1.83;;
26080;SDS011;13991;51.174;4.438;2023-04-25T21:57:29;17.60;;;2.10;;
26080;SDS011;13991;51.174;4.438;2023-04-25T21:59:55;16.97;;;2.03;;
26080;SDS011;13991;51.174;4.438;2023-04-25T22:02:21;17.07;;;2.60;;
26080;SDS011;13991;51.174;4.438;2023-04-25T22:04:46;17.53;;;2.90;;
26080;SDS011;13991;51.174;4.438;2023-04-25T22:07:13;14.33;;;2.00;;
26080;SDS011;13991;51.174;4.438;2023-04-25T22:09:39;26.67;;;2.77;;
26080;SDS011;13991;51.174;4.438;2023-04-25T22:12:05;13.63;;;2.30;;
26080;SDS011;13991;51.174;4.438;2023-04-25T22:14:32;11.10;;;2.63;;
26080;SDS011;13991;51.174;4.438;2023-04-25T22:16:58;13.27;;;2.47;;
26080;SDS011;13991;51.174;4.438;2023-04-25T22:19:25;17.27;;;2.40;;
26080;SDS011;13991;51.174;4.438;2023-04-25T22:21:52;19.50;;;2.63;;
26080;SDS011;13991;51.174;4.438;2023-04-25T22:24:18;15.90;;;3.37;;
26080;SDS011;13991;51.174;4.438;2023-04-25T22:26:44;13.53;;;2.43;;
26080;SDS011;13991;51.174;4.438;2023-04-25T22:29:11;14.87;;;2.47;;
26080;SDS011;13991;51.174;4.438;2023-04-25T22:31:36;10.70;;;1.77;;
26080;SDS011;13991;51.174;4.438;2023-04-25T22:34:02;21.77;;;3.07;;
26080;SDS011;13991;51.174;4.438;2023-04-25T22:36:28;11.80;;;1.77;;
26080;SDS011;13991;51.174;4.438;2023-04-25T22:38:54;21.63;;;2.23;;
26080;SDS011;13991;51.174;4.438;2023-04-25T22:41:19;8.63;;;2.57;;
26080;SDS011;13991;51.174;4.438;2023-04-25T22:43:47;19.83;;;3.37;;
26080;SDS011;13991;51.174;4.438;2023-04-25T22:46:16;9.30;;;1.90;;
26080;SDS011;13991;51.174;4.438;2023-04-25T22:48:43;10.57;;;1.80;;
26080;SDS011;13991;51.174;4.438;2023-04-25T22:51:09;31.00;;;3.00;;
26080;SDS011;13991;51.174;4.438;2023-04-25T22:53:35;13.97;;;2.60;;
26080;SDS011;13991;51.174;4.438;2023-04-25T22:56:12;14.63;;;2.93;;
26080;SDS011;13991;51.174;4.438;2023-04-25T22:58:39;13.87;;;3.27;;
26080;SDS011;13991;51.174;4.438;2023-04-25T23:01:05;9.63;;;2.70;;
26080;SDS011;13991;51.174;4.438;2023-04-25T23:03:32;13.43;;;2.43;;
26080;SDS011;13991;51.174;4.438;2023-04-25T23:05:58;17.07;;;2.37;;
26080;SDS011;13991;51.174;4.438;2023-04-25T23:08:24;24.90;;;3.00;;
26080;SDS011;13991;51.174;4.438;2023-04-25T23:10:51;7.63;;;2.50;;
26080;SDS011;13991;51.174;4.438;2023-04-25T23:13:18;14.27;;;2.70;;
26080;SDS011;13991;51.174;4.438;2023-04-25T23:15:44;26.77;;;4.00;;
26080;SDS011;13991;51.174;4.438;2023-04-25T23:18:10;14.17;;;2.43;;
26080;SDS011;13991;51.174;4.438;2023-04-25T23:20:36;13.07;;;3.10;;
26080;SDS011;13991;51.174;4.438;2023-04-25T23:23:01;16.47;;;2.13;;
26080;SDS011;13991;51.174;4.438;2023-04-25T23:25:27;8.97;;;2.43;;
26080;SDS011;13991;51.174;4.438;2023-04-25T23:27:53;11.33;;;2.90;;
26080;SDS011;13991;51.174;4.438;2023-04-25T23:30:19;15.73;;;2.63;;
26080;SDS011;13991;51.174;4.438;2023-04-25T23:32:45;23.67;;;2.90;;
26080;SDS011;13991;51.174;4.438;2023-04-25T23:35:11;10.93;;;3.13;;
26080;SDS011;13991;51.174;4.438;2023-04-25T23:37:37;12.30;;;3.27;;
26080;SDS011;13991;51.174;4.438;2023-04-25T23:40:04;10.67;;;2.70;;
26080;SDS011;13991;51.174;4.438;2023-04-25T23:42:34;16.00;;;2.57;;
26080;SDS011;13991;51.174;4.438;2023-04-25T23:45:00;9.17;;;3.03;;
26080;SDS011;13991;51.174;4.438;2023-04-25T23:47:26;14.13;;;2.73;;
26080;SDS011;13991;51.174;4.438;2023-04-25T23:49:52;17.73;;;2.80;;
26080;SDS011;13991;51.174;4.438;2023-04-25T23:52:18;12.90;;;3.30;;
26080;SDS011;13991;51.174;4.438;2023-04-25T23:54:43;14.70;;;2.63;;
26080;SDS011;13991;51.174;4.438;2023-04-25T23:57:09;6.93;;;2.67;;
26080;SDS011;13991;51.174;4.438;2023-04-25T23:59:36;6.80;;;2.47;;
